Mikkeli, Suomi

27. kesäkuuta 2017 klo 01:36 (EEST) (GMT +0300)
Saksalanharju | | Change Station

Kork 374 ft 61.99 °N, 27.22 °E | Updated 11 minutes ago

Pilvistä
Pilvistä
49.6 °F
Tuntuu kuin 48 °F
N
5.0
Tuuli Suunnaltaan vaihteleva Tuuli ilmansuunnasta Idän ja koillisen välinen
Gusts 7.0 mph

Tänään
Korkea -- | Matala -- °F
--% Sateen mahd.
Eilen
Korkea -- | Matala -- °F
Precip. -- tuumaa
Ilmanpaine 29.30 tuumaa
Näkyvyys 6.2 mailia
Pilviä Harvoja pilviä 1000 ft
Vähäistä pilvisyyttä 2100 ft
Täysin pilvistä 7100 ft
Tuulen hyytävyys 48 °F
Kastepiste 49 °F
Ilmankosteus 97%
Sademäärä 0.00 tuumaa
Lumensyvyys Ei saatavilla
3:23 AM 11:04 PM
Kasvava sirppi, 11% visible
METAR EFMI 262220Z AUTO 24005KT 210V280 9999 FEW010 SCT021 OVC071 11/09 Q0992
Ilmanpaine 29.30 tuumaa
Näkyvyys 6.2 mailia
Pilviä Harvoja pilviä 1000 ft
Vähäistä pilvisyyttä 2100 ft
Täysin pilvistä 7100 ft
Tuulen hyytävyys 48 °F
Kastepiste 49 °F
Ilmankosteus 97%
Sademäärä 0.00 tuumaa
Lumensyvyys Ei saatavilla
3:23 AM 11:04 PM
Kasvava sirppi, 11% visible
METAR EFMI 262220Z AUTO 24005KT 210V280 9999 FEW010 SCT021 OVC071 11/09 Q0992

Get Severe Weather Alerts

Thanks for signing up!

Be on the lookout for a verification email in your inbox.

You'll start receiving the daily forecast at 6 AM.

×

10-Day Weather Forecast

×

Almanac

Tähtitiede

Jun. 27, 2017 Nousuaika Laskuaika
Valoisa aika
Porvarillinen hämärä
Nauttinen hämärä
Astronominen hämärä
Kuu
Näkyvän valon pituus
Päivän pituus
Tomorrow will be .
, % of the Moon is Illuminated

Tämän päivän ennätykset

Country Highs Country Lows

Community

WunderPhotos

Category 6

Welcome to Category 6. This is the collective home for Weather Underground's featured writeups by Dr. Jeff Masters (right), Bob Henson (left), Chris Burt, and other regular contributors.

Nearby

Ilmanlaatu

  Ilmanlaatu AQ Index Pollutant
Not available.

Lumensyvyys

Station Depth Korkeus

Maanjäristysaktiivisuus

Paikkakunta Distance Mag. Time & Date
Minimum magnitude displayed is 2.5.

Coastal Water Temperatures

Paikka Lämpötila

Stations

Lähimmät sääasemat

Aseman sijainti Lämpötila Tuulen hyytävyys Kastepiste Ilmankosteus Tuuli Precip. Kork Päivitetty Tyyppi